Terminal Aerodrome Forecast
Issued by NWS Twin Cities, MN

Home | Current Version | Previous Version | Text Only | Print | Product List | Glossary On
Versions: 1 2 3 4 5 6 7 8 9 10 11 12 13 14 15 16 17 18
173
FTUS43 KMPX 212339
TAFEAU
TAF
KEAU 212339Z 2200/2224 03005KT P6SM OVC090
     FM220800 04009KT P6SM OVC025
     FM220900 04010KT 6SM BR VCSH OVC015
     FM221200 04014G23KT 5SM -SNRA OVC010
     FM221500 04016G24KT 2SM -SNRA OVC010
     FM221800 04018G26KT 1SM -SN BLSN OVC005=

USA.gov is the U.S. government's official web portal to all federal, state and local government web resources and services.